SWA2131 KDSM-KMDW
Flight info
| Callsign | SWA2131 |
|---|---|
| Flight time | 0h 52m |
| Altitude | 29000 |
| Route | KAMBL ENDEE8 |
| Aircraft | B737/M-SDE2E3GIJ4J7RWZ/LB1D1 |
Departure
| Time | 2026-04-24 21:26 |
|---|---|
| Airport | Des Moines International Airport (KDSM) |
Arrival
| Time | 2026-04-24 22:18 |
|---|---|
| Airport | Chicago Midway International Airport (KMDW) |
| Time | Latitude | Longitude | Altitude | Speed | Heading |
|---|---|---|---|---|---|
| 2026-04-24 20:39 | 41.53164 | -93.65009 | 965 ft | 0 kts | 358° |
| 2026-04-24 21:20 | 41.53116 | -93.65007 | 965 ft | 4 kts | 358° |
| 2026-04-24 21:20 | 41.53089 | -93.65005 | 965 ft | 4 kts | 358° |
| 2026-04-24 21:20 | 41.53074 | -93.65005 | 965 ft | 0 kts | 358° |
| 2026-04-24 21:23 | 41.53076 | -93.65005 | 965 ft | 2 kts | 0° |
| 2026-04-24 21:23 | 41.53088 | -93.64974 | 965 ft | 5 kts | 76° |
| 2026-04-24 21:23 | 41.53101 | -93.64990 | 965 ft | 5 kts | 224° |
| 2026-04-24 21:24 | 41.53059 | -93.65012 | 965 ft | 7 kts | 203° |
| 2026-04-24 21:24 | 41.53001 | -93.64970 | 965 ft | 13 kts | 136° |
| 2026-04-24 21:24 | 41.52954 | -93.64982 | 965 ft | 8 kts | 217° |
| 2026-04-24 21:24 | 41.52924 | -93.65049 | 965 ft | 10 kts | 299° |
| 2026-04-24 21:25 | 41.52991 | -93.65152 | 965 ft | 31 kts | 312° |
| 2026-04-24 21:25 | 41.53285 | -93.65584 | 965 ft | 94 kts | 313° |
| 2026-04-24 21:25 | 41.53848 | -93.66410 | 1009 ft | 140 kts | 311° |
| 2026-04-24 21:25 | 41.54528 | -93.67416 | 1495 ft | 154 kts | 311° |
| 2026-04-24 21:26 | 41.55279 | -93.68498 | 2153 ft | 159 kts | 313° |
| 2026-04-24 21:26 | 41.56053 | -93.69631 | 2770 ft | 174 kts | 311° |
| 2026-04-24 21:26 | 41.56893 | -93.70938 | 3261 ft | 196 kts | 310° |
| 2026-04-24 21:26 | 41.57770 | -93.72382 | 4088 ft | 199 kts | 310° |
| 2026-04-24 21:27 | 41.58772 | -93.73756 | 4720 ft | 221 kts | 327° |
| 2026-04-24 21:27 | 41.60320 | -93.74402 | 5007 ft | 248 kts | 357° |
| 2026-04-24 21:27 | 41.62037 | -93.73841 | 5538 ft | 270 kts | 26° |
| 2026-04-24 21:27 | 41.63435 | -93.72102 | 6595 ft | 278 kts | 53° |
| 2026-04-24 21:28 | 41.64133 | -93.69686 | 7498 ft | 291 kts | 79° |
| 2026-04-24 21:28 | 41.64056 | -93.66915 | 8441 ft | 299 kts | 97° |
| 2026-04-24 21:28 | 41.63669 | -93.64145 | 9351 ft | 307 kts | 100° |
| 2026-04-24 21:28 | 41.63265 | -93.61359 | 10334 ft | 312 kts | 100° |
| 2026-04-24 21:29 | 41.62849 | -93.58415 | 10903 ft | 334 kts | 100° |
| 2026-04-24 21:29 | 41.62409 | -93.55264 | 11460 ft | 354 kts | 100° |
| 2026-04-24 21:29 | 41.61954 | -93.51990 | 12306 ft | 362 kts | 101° |
| 2026-04-24 21:29 | 41.61411 | -93.48691 | 13243 ft | 367 kts | 103° |
| 2026-04-24 21:30 | 41.60793 | -93.45345 | 14156 ft | 373 kts | 104° |
| 2026-04-24 21:30 | 41.60148 | -93.41962 | 15071 ft | 378 kts | 105° |
| 2026-04-24 21:30 | 41.59495 | -93.38526 | 15945 ft | 385 kts | 105° |
| 2026-04-24 21:30 | 41.58834 | -93.35040 | 16795 ft | 391 kts | 105° |
| 2026-04-24 21:31 | 41.58162 | -93.31495 | 17670 ft | 395 kts | 105° |
| 2026-04-24 21:31 | 41.57484 | -93.27915 | 18500 ft | 400 kts | 105° |
| 2026-04-24 21:31 | 41.56797 | -93.24287 | 19279 ft | 407 kts | 105° |
| 2026-04-24 21:31 | 41.56096 | -93.20595 | 20047 ft | 412 kts | 105° |
| 2026-04-24 21:32 | 41.55387 | -93.16865 | 20807 ft | 417 kts | 106° |
| 2026-04-24 21:32 | 41.54669 | -93.13090 | 21503 ft | 423 kts | 106° |
| 2026-04-24 21:32 | 41.53937 | -93.09250 | 22198 ft | 428 kts | 106° |
| 2026-04-24 21:32 | 41.53207 | -93.05377 | 22862 ft | 434 kts | 106° |
| 2026-04-24 21:33 | 41.52495 | -93.01437 | 23480 ft | 439 kts | 106° |
| 2026-04-24 21:33 | 41.52002 | -92.98753 | 23892 ft | 443 kts | 107° |
| 2026-04-24 21:33 | 41.51013 | -92.93428 | 24700 ft | 449 kts | 107° |
| 2026-04-24 21:33 | 41.50253 | -92.89371 | 25276 ft | 453 kts | 108° |
| 2026-04-24 21:34 | 41.49481 | -92.85282 | 25862 ft | 457 kts | 108° |
| 2026-04-24 21:34 | 41.48698 | -92.81150 | 26414 ft | 461 kts | 108° |
| 2026-04-24 21:34 | 41.47909 | -92.77002 | 26953 ft | 464 kts | 109° |
| 2026-04-24 21:34 | 41.47110 | -92.72808 | 27484 ft | 467 kts | 109° |
| 2026-04-24 21:35 | 41.46299 | -92.68594 | 27966 ft | 471 kts | 110° |
| 2026-04-24 21:35 | 41.45486 | -92.64340 | 28438 ft | 475 kts | 110° |
| 2026-04-24 21:35 | 41.44660 | -92.60072 | 28835 ft | 479 kts | 111° |
| 2026-04-24 21:36 | 41.42995 | -92.51477 | 28930 ft | 479 kts | 111° |
| 2026-04-24 21:36 | 41.41332 | -92.42916 | 28928 ft | 475 kts | 111° |
| 2026-04-24 21:37 | 41.39671 | -92.34385 | 28930 ft | 475 kts | 112° |
| 2026-04-24 21:37 | 41.38011 | -92.25901 | 28926 ft | 476 kts | 112° |
| 2026-04-24 21:38 | 41.36334 | -92.17371 | 28924 ft | 476 kts | 112° |
| 2026-04-24 21:38 | 41.34651 | -92.08851 | 28922 ft | 475 kts | 112° |
| 2026-04-24 21:39 | 41.32954 | -92.00334 | 28920 ft | 477 kts | 112° |
| 2026-04-24 21:39 | 41.31268 | -91.91821 | 28910 ft | 476 kts | 112° |
| 2026-04-24 21:40 | 41.29565 | -91.83308 | 28897 ft | 476 kts | 112° |
| 2026-04-24 21:40 | 41.27863 | -91.74800 | 28894 ft | 477 kts | 112° |
| 2026-04-24 21:41 | 41.26149 | -91.66317 | 28888 ft | 476 kts | 112° |
| 2026-04-24 21:41 | 41.24434 | -91.57849 | 28894 ft | 475 kts | 112° |
| 2026-04-24 21:42 | 41.22702 | -91.49365 | 28891 ft | 474 kts | 113° |
| 2026-04-24 21:42 | 41.20975 | -91.40889 | 28890 ft | 473 kts | 112° |
| 2026-04-24 21:43 | 41.19241 | -91.32446 | 28885 ft | 475 kts | 112° |
| 2026-04-24 21:43 | 41.17522 | -91.24084 | 28894 ft | 474 kts | 112° |
| 2026-04-24 21:44 | 41.15790 | -91.15659 | 28889 ft | 472 kts | 112° |
| 2026-04-24 21:44 | 41.14074 | -91.07260 | 28883 ft | 471 kts | 113° |
| 2026-04-24 21:44 | 41.13215 | -91.03084 | 28593 ft | 466 kts | 112° |
| 2026-04-24 21:45 | 41.12647 | -91.00362 | 28363 ft | 459 kts | 113° |
| 2026-04-24 21:45 | 41.11793 | -90.96277 | 27756 ft | 462 kts | 112° |
| 2026-04-24 21:45 | 41.10909 | -90.92125 | 27120 ft | 460 kts | 112° |
| 2026-04-24 21:45 | 41.10047 | -90.88049 | 26492 ft | 457 kts | 111° |
| 2026-04-24 21:46 | 41.09192 | -90.84009 | 25870 ft | 454 kts | 111° |
| 2026-04-24 21:46 | 41.08343 | -90.79997 | 25253 ft | 451 kts | 111° |
| 2026-04-24 21:46 | 41.07518 | -90.76061 | 24652 ft | 448 kts | 109° |
| 2026-04-24 21:46 | 41.06931 | -90.72002 | 24205 ft | 446 kts | 101° |
| 2026-04-24 21:47 | 41.06709 | -90.67908 | 23898 ft | 446 kts | 94° |
| 2026-04-24 21:47 | 41.06837 | -90.63810 | 23374 ft | 445 kts | 86° |
| 2026-04-24 21:47 | 41.07237 | -90.59772 | 23051 ft | 440 kts | 83° |
| 2026-04-24 21:47 | 41.07644 | -90.55749 | 22737 ft | 439 kts | 84° |
| 2026-04-24 21:48 | 41.07969 | -90.51724 | 22427 ft | 440 kts | 85° |
| 2026-04-24 21:48 | 41.08283 | -90.47700 | 22118 ft | 437 kts | 85° |
| 2026-04-24 21:48 | 41.08594 | -90.43709 | 21815 ft | 433 kts | 85° |
| 2026-04-24 21:48 | 41.08932 | -90.39755 | 21515 ft | 430 kts | 84° |
| 2026-04-24 21:49 | 41.09254 | -90.35838 | 21216 ft | 427 kts | 84° |
| 2026-04-24 21:49 | 41.09564 | -90.31930 | 20921 ft | 423 kts | 85° |
| 2026-04-24 21:49 | 41.09865 | -90.28063 | 20626 ft | 420 kts | 84° |
| 2026-04-24 21:49 | 41.10160 | -90.24228 | 20336 ft | 416 kts | 85° |
| 2026-04-24 21:50 | 41.10451 | -90.20434 | 20047 ft | 413 kts | 84° |
| 2026-04-24 21:50 | 41.10739 | -90.16654 | 19760 ft | 410 kts | 84° |
| 2026-04-24 21:50 | 41.11021 | -90.12959 | 19481 ft | 407 kts | 84° |
| 2026-04-24 21:50 | 41.11306 | -90.09236 | 19198 ft | 403 kts | 84° |
| 2026-04-24 21:51 | 41.11586 | -90.05558 | 18935 ft | 400 kts | 84° |
| 2026-04-24 21:51 | 41.11862 | -90.01890 | 18668 ft | 399 kts | 84° |
| 2026-04-24 21:51 | 41.12121 | -89.98244 | 18359 ft | 396 kts | 85° |
| 2026-04-24 21:51 | 41.12370 | -89.94619 | 18062 ft | 393 kts | 85° |
| 2026-04-24 21:52 | 41.12612 | -89.91021 | 17783 ft | 389 kts | 85° |
| 2026-04-24 21:52 | 41.12849 | -89.87461 | 17649 ft | 388 kts | 85° |
| 2026-04-24 21:52 | 41.13086 | -89.83897 | 17376 ft | 388 kts | 85° |
| 2026-04-24 21:52 | 41.13322 | -89.80332 | 17095 ft | 387 kts | 85° |
| 2026-04-24 21:53 | 41.13556 | -89.76796 | 16813 ft | 385 kts | 85° |
| 2026-04-24 21:53 | 41.13791 | -89.73261 | 16532 ft | 383 kts | 85° |
| 2026-04-24 21:53 | 41.14025 | -89.69756 | 16252 ft | 382 kts | 85° |
| 2026-04-24 21:53 | 41.14265 | -89.66252 | 15973 ft | 380 kts | 85° |
| 2026-04-24 21:54 | 41.14492 | -89.62769 | 15696 ft | 379 kts | 85° |
| 2026-04-24 21:54 | 41.14712 | -89.59293 | 15418 ft | 377 kts | 86° |
| 2026-04-24 21:54 | 41.14929 | -89.55827 | 15144 ft | 377 kts | 86° |
| 2026-04-24 21:54 | 41.15146 | -89.52367 | 14871 ft | 375 kts | 86° |
| 2026-04-24 21:55 | 41.15359 | -89.48910 | 14596 ft | 374 kts | 86° |
| 2026-04-24 21:55 | 41.15573 | -89.45476 | 14325 ft | 373 kts | 86° |
| 2026-04-24 21:55 | 41.15785 | -89.42059 | 14085 ft | 371 kts | 86° |
| 2026-04-24 21:55 | 41.16012 | -89.38638 | 13791 ft | 373 kts | 85° |
| 2026-04-24 21:56 | 41.16251 | -89.35213 | 13477 ft | 372 kts | 85° |
| 2026-04-24 21:56 | 41.16481 | -89.31785 | 13161 ft | 371 kts | 86° |
| 2026-04-24 21:56 | 41.16701 | -89.28384 | 12857 ft | 369 kts | 86° |
| 2026-04-24 21:56 | 41.16916 | -89.25004 | 12557 ft | 367 kts | 86° |
| 2026-04-24 21:57 | 41.17132 | -89.21625 | 12263 ft | 366 kts | 86° |
| 2026-04-24 21:57 | 41.17345 | -89.18306 | 11966 ft | 364 kts | 86° |
| 2026-04-24 21:57 | 41.17558 | -89.14972 | 11676 ft | 361 kts | 85° |
| 2026-04-24 21:57 | 41.17914 | -89.11690 | 11388 ft | 358 kts | 79° |
| 2026-04-24 21:58 | 41.18546 | -89.08508 | 11104 ft | 356 kts | 72° |
| 2026-04-24 21:58 | 41.19317 | -89.05394 | 10820 ft | 353 kts | 72° |
| 2026-04-24 21:58 | 41.20032 | -89.02336 | 10539 ft | 342 kts | 73° |
| 2026-04-24 21:58 | 41.20717 | -88.99337 | 10265 ft | 332 kts | 73° |
| 2026-04-24 21:59 | 41.21407 | -88.96461 | 10063 ft | 321 kts | 69° |
| 2026-04-24 21:59 | 41.22276 | -88.93795 | 9917 ft | 311 kts | 63° |
| 2026-04-24 21:59 | 41.23231 | -88.91230 | 9703 ft | 309 kts | 63° |
| 2026-04-24 21:59 | 41.24165 | -88.88663 | 9525 ft | 308 kts | 63° |
| 2026-04-24 22:00 | 41.25076 | -88.86088 | 9360 ft | 310 kts | 63° |
| 2026-04-24 22:00 | 41.25995 | -88.83485 | 9184 ft | 310 kts | 63° |
| 2026-04-24 22:00 | 41.26907 | -88.80893 | 9018 ft | 308 kts | 63° |
| 2026-04-24 22:00 | 41.27811 | -88.78318 | 8853 ft | 305 kts | 63° |
| 2026-04-24 22:01 | 41.28716 | -88.75785 | 8690 ft | 302 kts | 63° |
| 2026-04-24 22:01 | 41.29608 | -88.73261 | 8526 ft | 302 kts | 63° |
| 2026-04-24 22:01 | 41.30497 | -88.70733 | 8361 ft | 302 kts | 63° |
| 2026-04-24 22:01 | 41.31382 | -88.68205 | 8194 ft | 300 kts | 63° |
| 2026-04-24 22:02 | 41.32248 | -88.65719 | 8028 ft | 300 kts | 63° |
| 2026-04-24 22:02 | 41.33123 | -88.63209 | 7861 ft | 298 kts | 63° |
| 2026-04-24 22:02 | 41.33993 | -88.60707 | 7696 ft | 298 kts | 64° |
| 2026-04-24 22:02 | 41.34860 | -88.58215 | 7528 ft | 297 kts | 63° |
| 2026-04-24 22:03 | 41.35729 | -88.55720 | 7363 ft | 296 kts | 63° |
| 2026-04-24 22:03 | 41.36592 | -88.53243 | 7190 ft | 295 kts | 64° |
| 2026-04-24 22:03 | 41.37544 | -88.50838 | 7034 ft | 292 kts | 57° |
| 2026-04-24 22:03 | 41.38714 | -88.48632 | 6931 ft | 291 kts | 50° |
| 2026-04-24 22:04 | 41.39997 | -88.46542 | 6827 ft | 291 kts | 48° |
| 2026-04-24 22:04 | 41.41295 | -88.44477 | 6724 ft | 291 kts | 48° |
| 2026-04-24 22:04 | 41.42579 | -88.42397 | 6623 ft | 290 kts | 49° |
| 2026-04-24 22:04 | 41.43855 | -88.40310 | 6524 ft | 290 kts | 49° |
| 2026-04-24 22:05 | 41.45120 | -88.38231 | 6430 ft | 289 kts | 49° |
| 2026-04-24 22:05 | 41.46379 | -88.36154 | 6335 ft | 288 kts | 49° |
| 2026-04-24 22:05 | 41.47580 | -88.34168 | 6243 ft | 288 kts | 49° |
| 2026-04-24 22:05 | 41.48836 | -88.32095 | 6147 ft | 288 kts | 49° |
| 2026-04-24 22:06 | 41.50017 | -88.29926 | 6049 ft | 289 kts | 59° |
| 2026-04-24 22:06 | 41.50741 | -88.27565 | 6012 ft | 288 kts | 72° |
| 2026-04-24 22:06 | 41.51185 | -88.24964 | 6012 ft | 289 kts | 79° |
| 2026-04-24 22:06 | 41.51455 | -88.22299 | 6012 ft | 291 kts | 83° |
| 2026-04-24 22:07 | 41.51662 | -88.19607 | 6010 ft | 291 kts | 84° |
| 2026-04-24 22:07 | 41.51764 | -88.18300 | 6010 ft | 290 kts | 83° |
| 2026-04-24 22:07 | 41.51978 | -88.15655 | 6009 ft | 290 kts | 83° |
| 2026-04-24 22:07 | 41.52204 | -88.12979 | 6010 ft | 290 kts | 83° |
| 2026-04-24 22:08 | 41.52433 | -88.10304 | 6011 ft | 290 kts | 83° |
| 2026-04-24 22:08 | 41.52665 | -88.07639 | 6008 ft | 289 kts | 83° |
| 2026-04-24 22:08 | 41.52899 | -88.04968 | 6012 ft | 289 kts | 83° |
| 2026-04-24 22:08 | 41.53117 | -88.02476 | 6008 ft | 289 kts | 83° |
| 2026-04-24 22:09 | 41.53352 | -87.99807 | 6009 ft | 290 kts | 83° |
| 2026-04-24 22:09 | 41.53588 | -87.97131 | 6008 ft | 290 kts | 83° |
| 2026-04-24 22:09 | 41.53822 | -87.94457 | 6008 ft | 290 kts | 83° |
| 2026-04-24 22:09 | 41.54059 | -87.91782 | 6008 ft | 291 kts | 83° |
| 2026-04-24 22:10 | 41.54297 | -87.89102 | 6007 ft | 290 kts | 83° |
| 2026-04-24 22:10 | 41.54531 | -87.86424 | 6006 ft | 290 kts | 83° |
| 2026-04-24 22:10 | 41.54761 | -87.83848 | 6006 ft | 290 kts | 83° |
| 2026-04-24 22:10 | 41.54995 | -87.81203 | 6006 ft | 290 kts | 83° |
| 2026-04-24 22:11 | 41.55229 | -87.78529 | 6004 ft | 290 kts | 83° |
| 2026-04-24 22:11 | 41.55460 | -87.75869 | 5958 ft | 288 kts | 83° |
| 2026-04-24 22:11 | 41.55686 | -87.73266 | 5673 ft | 283 kts | 83° |
| 2026-04-24 22:11 | 41.55915 | -87.70611 | 5157 ft | 286 kts | 84° |
| 2026-04-24 22:12 | 41.56236 | -87.67998 | 4716 ft | 285 kts | 72° |
| 2026-04-24 22:12 | 41.57210 | -87.65777 | 4393 ft | 278 kts | 47° |
| 2026-04-24 22:12 | 41.58617 | -87.64115 | 4299 ft | 263 kts | 37° |
| 2026-04-24 22:12 | 41.60031 | -87.62660 | 4205 ft | 251 kts | 36° |
| 2026-04-24 22:13 | 41.61422 | -87.61243 | 3852 ft | 251 kts | 35° |
| 2026-04-24 22:13 | 41.62807 | -87.59832 | 3601 ft | 242 kts | 35° |
| 2026-04-24 22:13 | 41.64183 | -87.58871 | 3508 ft | 211 kts | 9° |
| 2026-04-24 22:13 | 41.65562 | -87.58930 | 3501 ft | 191 kts | 348° |
| 2026-04-24 22:14 | 41.66844 | -87.59263 | 3495 ft | 184 kts | 343° |
| 2026-04-24 22:14 | 41.67909 | -87.60075 | 3428 ft | 175 kts | 312° |
| 2026-04-24 22:14 | 41.68648 | -87.61211 | 3282 ft | 175 kts | 308° |
| 2026-04-24 22:14 | 41.69443 | -87.62422 | 3038 ft | 173 kts | 309° |
| 2026-04-24 22:15 | 41.70260 | -87.63603 | 2804 ft | 171 kts | 310° |
| 2026-04-24 22:15 | 41.71083 | -87.64770 | 2579 ft | 173 kts | 310° |
| 2026-04-24 22:15 | 41.71884 | -87.65897 | 2357 ft | 160 kts | 310° |
| 2026-04-24 22:15 | 41.72613 | -87.66921 | 2138 ft | 152 kts | 311° |
| 2026-04-24 22:16 | 41.73323 | -87.67917 | 1965 ft | 141 kts | 311° |
| 2026-04-24 22:16 | 41.73977 | -87.68835 | 1782 ft | 133 kts | 311° |
| 2026-04-24 22:16 | 41.74604 | -87.69714 | 1587 ft | 128 kts | 311° |
| 2026-04-24 22:16 | 41.75212 | -87.70566 | 1426 ft | 127 kts | 311° |
| 2026-04-24 22:17 | 41.75831 | -87.71427 | 1264 ft | 129 kts | 311° |
| 2026-04-24 22:17 | 41.76452 | -87.72298 | 1079 ft | 128 kts | 310° |
| 2026-04-24 22:17 | 41.77059 | -87.73164 | 903 ft | 126 kts | 311° |
| 2026-04-24 22:17 | 41.77393 | -87.73629 | 814 ft | 125 kts | 311° |
| 2026-04-24 22:18 | 41.77995 | -87.74474 | 666 ft | 126 kts | 310° |
| 2026-04-24 22:18 | 41.78547 | -87.75251 | 628 ft | 81 kts | 313° |
| 2026-04-24 22:18 | 41.78767 | -87.75561 | 628 ft | 33 kts | 313° |
| 2026-04-24 22:18 | 41.78955 | -87.75769 | 628 ft | 34 kts | 336° |
| 2026-04-24 22:19 | 41.79113 | -87.75799 | 628 ft | 19 kts | 50° |
| 2026-04-24 22:19 | 41.79119 | -87.75662 | 628 ft | 10 kts | 123° |
| 2026-04-24 22:19 | 41.79068 | -87.75585 | 628 ft | 11 kts | 133° |
| 2026-04-24 22:19 | 41.79015 | -87.75509 | 628 ft | 11 kts | 133° |
| 2026-04-24 22:20 | 41.78935 | -87.75395 | 628 ft | 22 kts | 135° |
| 2026-04-24 22:20 | 41.78817 | -87.75233 | 628 ft | 24 kts | 134° |
| 2026-04-24 22:20 | 41.78704 | -87.75077 | 628 ft | 23 kts | 134° |
| 2026-04-24 22:20 | 41.78598 | -87.74929 | 628 ft | 20 kts | 127° |
| 2026-04-24 22:21 | 41.78665 | -87.74791 | 628 ft | 20 kts | 19° |
| 2026-04-24 22:21 | 41.78772 | -87.74689 | 628 ft | 19 kts | 44° |
| 2026-04-24 22:21 | 41.78853 | -87.74586 | 628 ft | 12 kts | 42° |
| 2026-04-24 22:21 | 41.78849 | -87.74521 | 628 ft | 12 kts | 134° |
| 2026-04-24 22:22 | 41.78812 | -87.74464 | 628 ft | 0 kts | 129° |
| 2026-04-24 22:22 | 41.78809 | -87.74461 | 628 ft | 1 kts | 129° |
| 2026-04-24 22:22 | 41.78808 | -87.74459 | 628 ft | 0 kts | 129° |